createdAt,value
2023-04-14T00:00:23.677Z,7.20
2023-04-14T00:02:50.860Z,7.30
2023-04-14T00:05:17.562Z,7.30
2023-04-14T00:07:44.222Z,7.30
2023-04-14T00:10:11.407Z,7.30
2023-04-14T00:12:37.990Z,7.30
2023-04-14T00:15:05.261Z,7.60
2023-04-14T00:17:32.282Z,7.10
2023-04-14T00:19:58.836Z,7.40
2023-04-14T00:22:25.667Z,7.20
2023-04-14T00:24:52.199Z,7.20
2023-04-14T00:27:18.781Z,8.10
2023-04-14T00:29:45.392Z,4.40
2023-04-14T00:32:11.973Z,7.20
2023-04-14T00:34:38.531Z,7.10
2023-04-14T00:37:05.275Z,7.10
2023-04-14T00:39:31.987Z,7.60
2023-04-14T00:42:00.877Z,7.20
2023-04-14T00:44:28.136Z,7.10
2023-04-14T00:46:55.146Z,7.10
2023-04-14T00:49:21.788Z,7.10
2023-04-14T00:51:48.961Z,7.60
2023-04-14T00:54:17.649Z,7.00
2023-04-14T00:56:44.602Z,7.10
2023-04-14T00:59:11.844Z,7.10
2023-04-14T01:01:38.777Z,7.00
2023-04-14T01:04:06.333Z,7.10
2023-04-14T01:06:33.244Z,7.70
2023-04-14T01:09:00.748Z,7.00
2023-04-14T01:11:42.761Z,7.00
2023-04-14T01:14:18.338Z,7.00
2023-04-14T01:16:49.493Z,7.00
2023-04-14T01:19:25.578Z,7.00
2023-04-14T01:21:54.504Z,6.90
2023-04-14T01:24:26.415Z,7.00
2023-04-14T01:27:16.455Z,6.90
2023-04-14T01:30:02.895Z,7.00
2023-04-14T01:32:31.585Z,7.00
2023-04-14T01:35:01.609Z,6.90
2023-04-14T01:37:34.078Z,7.00
2023-04-14T01:40:03.683Z,6.90
2023-04-14T01:42:31.540Z,6.90
2023-04-14T01:45:01.178Z,7.10
2023-04-14T01:47:29.442Z,6.90
2023-04-14T01:49:56.870Z,7.00
2023-04-14T01:52:24.730Z,6.90
2023-04-14T01:54:52.874Z,6.80
2023-04-14T01:57:23.074Z,6.80
2023-04-14T01:59:51.168Z,6.90
2023-04-14T02:02:18.681Z,7.00
2023-04-14T02:04:46.948Z,6.80
2023-04-14T02:07:13.882Z,6.80
2023-04-14T02:09:41.715Z,6.80
2023-04-14T02:12:09.223Z,6.90
2023-04-14T02:14:36.545Z,6.80
2023-04-14T02:17:03.848Z,6.80
2023-04-14T02:19:30.881Z,8.40
2023-04-14T02:21:58.156Z,6.80
2023-04-14T02:24:24.833Z,6.80
2023-04-14T02:26:58.681Z,6.80
2023-04-14T02:29:25.912Z,6.80
2023-04-14T02:32:06.031Z,6.80
2023-04-14T02:34:37.464Z,6.60
2023-04-14T02:37:08.569Z,6.70
2023-04-14T02:39:40.641Z,6.70
2023-04-14T02:42:15.785Z,6.70
2023-04-14T02:44:49.804Z,6.70
2023-04-14T02:47:22.061Z,6.70
2023-04-14T02:49:50.299Z,6.70
2023-04-14T02:52:18.366Z,6.70
2023-04-14T02:54:45.645Z,8.00
2023-04-14T02:57:12.659Z,6.70
2023-04-14T02:59:40.169Z,7.30
2023-04-14T03:02:07.025Z,6.70
2023-04-14T03:04:35.114Z,6.70
2023-04-14T03:07:02.166Z,6.70
2023-04-14T03:09:30.045Z,7.00
2023-04-14T03:11:57.334Z,6.70
2023-04-14T03:14:24.539Z,6.70
2023-04-14T03:16:53.632Z,6.70
2023-04-14T03:19:22.407Z,6.70
2023-04-14T03:21:53.781Z,6.70
2023-04-14T03:24:24.446Z,6.70
2023-04-14T03:26:52.398Z,6.60
2023-04-14T03:29:21.054Z,6.60
2023-04-14T03:31:48.101Z,6.60
2023-04-14T03:34:16.005Z,6.60
2023-04-14T03:36:43.180Z,6.60
2023-04-14T03:39:11.612Z,6.50
2023-04-14T03:41:39.632Z,5.30
2023-04-14T03:44:07.494Z,6.90
2023-04-14T03:46:34.100Z,6.60
2023-04-14T03:49:06.633Z,6.60
2023-04-14T03:51:34.001Z,6.60
2023-04-14T03:54:02.424Z,6.60
2023-04-14T03:56:29.232Z,6.60
2023-04-14T03:58:56.924Z,7.60
2023-04-14T04:01:25.810Z,6.50
2023-04-14T04:03:54.105Z,6.50
2023-04-14T04:06:20.972Z,6.50
2023-04-14T04:08:48.161Z,6.50
2023-04-14T04:11:18.856Z,6.50
2023-04-14T04:13:46.261Z,6.50
2023-04-14T04:16:13.568Z,6.40
2023-04-14T04:18:43.082Z,6.50
2023-04-14T04:21:10.094Z,6.40
2023-04-14T04:23:37.433Z,6.40
2023-04-14T04:26:04.047Z,6.90
2023-04-14T04:28:31.185Z,6.40
2023-04-14T04:30:59.374Z,6.30
2023-04-14T04:33:27.523Z,6.40
2023-04-14T04:35:54.994Z,6.30
2023-04-14T04:38:21.581Z,6.90
2023-04-14T04:40:48.318Z,6.40
2023-04-14T04:43:16.647Z,8.20
2023-04-14T04:45:55.731Z,6.30
2023-04-14T04:48:22.306Z,6.30
2023-04-14T04:50:48.848Z,6.40
2023-04-14T04:53:15.517Z,6.40
2023-04-14T04:55:42.388Z,6.80
2023-04-14T04:58:09.159Z,6.20
2023-04-14T05:00:35.994Z,6.40
2023-04-14T05:03:02.979Z,6.40
2023-04-14T05:05:30.580Z,6.50
2023-04-14T05:07:57.159Z,6.50
2023-04-14T05:10:23.780Z,6.80
2023-04-14T05:12:50.645Z,6.60
2023-04-14T05:15:17.257Z,6.60
2023-04-14T05:17:43.944Z,6.60
2023-04-14T05:20:10.791Z,6.60
2023-04-14T05:22:37.856Z,6.70
2023-04-14T05:25:04.581Z,6.70
2023-04-14T05:27:31.708Z,6.80
2023-04-14T05:29:58.287Z,6.70
2023-04-14T05:32:25.768Z,6.80
2023-04-14T05:34:53.673Z,6.80
2023-04-14T05:37:20.274Z,6.90
2023-04-14T05:39:47.114Z,6.80
2023-04-14T05:42:13.666Z,6.90
2023-04-14T05:44:40.545Z,7.00
2023-04-14T05:47:07.161Z,7.00
2023-04-14T05:49:33.787Z,7.00
2023-04-14T05:52:00.518Z,7.10
2023-04-14T05:54:27.115Z,7.10
2023-04-14T05:56:53.703Z,7.20
2023-04-14T05:59:20.995Z,7.20
2023-04-14T06:01:47.697Z,7.30
2023-04-14T06:04:15.534Z,7.30
2023-04-14T06:06:42.465Z,7.50
2023-04-14T06:09:09.036Z,7.70
2023-04-14T06:11:36.137Z,7.50
2023-04-14T06:14:03.084Z,7.50
2023-04-14T06:16:29.926Z,7.60
2023-04-14T06:18:56.668Z,7.60
2023-04-14T06:21:23.261Z,7.60
2023-04-14T06:23:49.844Z,7.70
2023-04-14T06:26:16.394Z,7.70
2023-04-14T06:28:43.955Z,7.70
2023-04-14T06:31:10.864Z,8.00
2023-04-14T06:33:37.388Z,7.70
2023-04-14T06:36:04.125Z,7.70
2023-04-14T06:38:30.705Z,7.80
2023-04-14T06:40:57.524Z,7.80
2023-04-14T06:43:24.089Z,7.90
2023-04-14T06:45:52.555Z,7.80
2023-04-14T06:48:19.418Z,7.90
2023-04-14T06:50:52.336Z,7.90
2023-04-14T06:53:18.908Z,8.00
2023-04-14T06:55:45.461Z,8.10
2023-04-14T06:58:12.669Z,8.10
2023-04-14T07:00:39.263Z,8.20
2023-04-14T07:03:06.057Z,8.30
2023-04-14T07:05:32.682Z,8.30
2023-04-14T07:07:59.262Z,8.40
2023-04-14T07:10:25.982Z,8.60
2023-04-14T07:12:52.512Z,8.60
2023-04-14T07:15:19.135Z,8.60
2023-04-14T07:17:45.821Z,8.60
2023-04-14T07:20:12.656Z,8.70
2023-04-14T07:22:39.490Z,8.40
2023-04-14T07:25:06.180Z,8.90
2023-04-14T07:27:32.929Z,9.20
2023-04-14T07:29:59.579Z,9.10
2023-04-14T07:32:26.519Z,9.10
2023-04-14T07:34:53.083Z,9.20
2023-04-14T07:37:20.789Z,9.20
2023-04-14T07:39:47.393Z,9.30
2023-04-14T07:42:14.006Z,9.40
2023-04-14T07:44:40.816Z,9.40
2023-04-14T07:47:07.412Z,9.50
2023-04-14T07:49:34.002Z,9.70
2023-04-14T07:52:01.366Z,10.10
2023-04-14T07:54:28.215Z,10.50
2023-04-14T07:56:54.761Z,10.70
2023-04-14T07:59:21.383Z,11.00
2023-04-14T08:01:48.637Z,11.40
2023-04-14T08:04:15.483Z,11.70
2023-04-14T08:06:42.283Z,11.80
2023-04-14T08:09:08.863Z,11.90
2023-04-14T08:11:35.438Z,12.20
2023-04-14T08:14:02.019Z,12.40
2023-04-14T08:16:29.142Z,12.80
2023-04-14T08:18:57.872Z,13.20
2023-04-14T08:21:24.776Z,13.30
2023-04-14T08:23:52.443Z,13.50
2023-04-14T08:26:19.054Z,13.60
2023-04-14T08:28:46.983Z,13.50
2023-04-14T08:31:13.535Z,13.60
2023-04-14T08:33:40.478Z,13.60
2023-04-14T08:36:07.242Z,13.70
2023-04-14T08:38:33.788Z,13.60
2023-04-14T08:41:01.401Z,13.90
2023-04-14T08:43:28.524Z,14.00
2023-04-14T08:45:55.456Z,13.90
2023-04-14T08:48:24.367Z,14.10
2023-04-14T08:51:12.399Z,14.10
2023-04-14T08:53:42.812Z,14.00
2023-04-14T08:56:11.181Z,13.90
2023-04-14T08:58:38.037Z,13.90
2023-04-14T09:01:05.616Z,13.80
2023-04-14T09:03:32.558Z,13.80
2023-04-14T09:05:59.544Z,13.70
2023-04-14T09:08:26.972Z,13.70
2023-04-14T09:10:54.096Z,13.50
2023-04-14T09:13:21.146Z,13.40
2023-04-14T09:15:48.216Z,13.20
2023-04-14T09:18:15.585Z,13.10
2023-04-14T09:20:42.414Z,13.10
2023-04-14T09:23:12.133Z,12.90
2023-04-14T09:25:39.552Z,12.90
2023-04-14T09:28:06.249Z,12.80
2023-04-14T09:30:32.932Z,12.60
2023-04-14T09:33:00.634Z,12.70
2023-04-14T09:35:44.274Z,12.80
2023-04-14T09:38:10.866Z,12.80
2023-04-14T09:40:39.078Z,12.80
2023-04-14T09:43:06.242Z,12.80
2023-04-14T09:45:45.662Z,12.80
2023-04-14T09:48:13.420Z,12.90
2023-04-14T09:50:59.247Z,12.80
2023-04-14T09:53:29.632Z,12.90
2023-04-14T09:55:56.961Z,12.70
2023-04-14T09:58:26.877Z,12.60
2023-04-14T10:00:55.909Z,12.50
2023-04-14T10:03:35.999Z,12.40
2023-04-14T10:06:05.743Z,12.40
2023-04-14T10:08:37.207Z,12.50
2023-04-14T10:11:33.113Z,12.70
2023-04-14T10:14:09.229Z,13.00
2023-04-14T10:16:36.175Z,13.40
2023-04-14T10:19:03.743Z,13.90
2023-04-14T10:21:30.760Z,14.60
2023-04-14T10:23:57.838Z,15.20
2023-04-14T10:26:24.836Z,15.90
2023-04-14T10:28:52.024Z,16.50
2023-04-14T10:31:29.449Z,16.70
2023-04-14T10:33:56.124Z,17.10
2023-04-14T10:36:23.972Z,17.70
2023-04-14T10:38:57.029Z,18.60
2023-04-14T10:41:24.113Z,18.60
2023-04-14T10:43:50.684Z,18.90
2023-04-14T10:46:18.614Z,19.10
2023-04-14T10:48:46.590Z,19.80
2023-04-14T10:51:16.226Z,20.10
2023-04-14T10:53:47.593Z,20.80
2023-04-14T10:56:14.326Z,21.20
2023-04-14T10:58:41.068Z,20.80
2023-04-14T11:01:28.112Z,21.70
2023-04-14T11:03:56.336Z,23.20
2023-04-14T11:06:41.750Z,23.80
2023-04-14T11:09:22.807Z,24.30
2023-04-14T11:11:49.344Z,24.50
2023-04-14T11:14:16.103Z,23.90
2023-04-14T11:16:54.046Z,23.10
2023-04-14T11:19:25.871Z,23.00
2023-04-14T11:21:55.212Z,23.00
2023-04-14T11:24:22.577Z,22.30
2023-04-14T11:26:53.498Z,22.70
2023-04-14T11:29:20.190Z,22.80
2023-04-14T11:31:47.190Z,22.50
2023-04-14T11:34:13.782Z,22.30
2023-04-14T11:36:40.400Z,22.20
2023-04-14T11:39:06.958Z,22.00
2023-04-14T11:41:33.905Z,21.80
2023-04-14T11:44:00.567Z,21.60
2023-04-14T11:46:27.242Z,21.20
2023-04-14T11:48:54.919Z,20.50
2023-04-14T11:51:21.547Z,20.40
2023-04-14T11:53:48.192Z,20.00
2023-04-14T11:56:15.355Z,20.00
2023-04-14T11:58:41.943Z,20.00
2023-04-14T12:01:08.663Z,19.90
2023-04-14T12:06:03.083Z,19.30
2023-04-14T12:08:30.410Z,18.90
2023-04-14T12:10:57.867Z,18.60
2023-04-14T12:13:24.739Z,18.50
2023-04-14T12:15:52.765Z,18.30
2023-04-14T12:20:55.384Z,18.40
2023-04-14T12:23:22.276Z,18.70
2023-04-14T12:28:25.463Z,19.50
2023-04-14T12:30:52.940Z,19.80
2023-04-14T12:38:14.887Z,19.80
2023-04-14T12:43:10.325Z,20.00
2023-04-14T12:45:40.328Z,20.00
2023-04-14T12:50:33.967Z,19.20
2023-04-14T12:53:01.433Z,18.80
2023-04-14T12:55:29.737Z,18.60
2023-04-14T12:57:57.000Z,18.70
2023-04-14T13:00:24.955Z,19.00
2023-04-14T13:02:51.848Z,19.00
2023-04-14T13:05:18.766Z,19.00
2023-04-14T13:07:46.552Z,19.20
2023-04-14T13:10:13.329Z,18.60
2023-04-14T13:12:40.332Z,18.40
2023-04-14T13:17:34.204Z,18.40
2023-04-14T13:20:01.840Z,18.20
2023-04-14T13:22:28.864Z,18.10
2023-04-14T13:24:58.303Z,18.00
2023-04-14T13:27:24.965Z,17.90
2023-04-14T13:29:51.548Z,18.00
2023-04-14T13:32:18.467Z,18.10
2023-04-14T13:34:46.263Z,18.20
2023-04-14T13:37:12.887Z,18.40
2023-04-14T13:39:39.462Z,18.60
2023-04-14T13:42:05.979Z,18.20
2023-04-14T13:44:33.427Z,18.20
2023-04-14T13:47:00.021Z,17.80
2023-04-14T13:49:27.494Z,17.70
2023-04-14T13:51:54.051Z,17.90
2023-04-14T13:54:20.875Z,18.20
2023-04-14T13:56:47.470Z,18.20
2023-04-14T13:59:16.167Z,18.60
2023-04-14T14:01:42.829Z,18.80
2023-04-14T14:04:09.998Z,19.10
2023-04-14T14:06:37.251Z,19.10
2023-04-14T14:09:07.264Z,19.20
2023-04-14T14:11:34.470Z,19.30
2023-04-14T14:14:01.348Z,19.10
2023-04-14T14:18:57.935Z,18.90
2023-04-14T14:21:24.950Z,19.00
2023-04-14T14:23:51.621Z,19.10
2023-04-14T14:26:18.339Z,19.30
2023-04-14T14:28:45.685Z,19.00
2023-04-14T14:31:12.733Z,18.60
2023-04-14T14:33:39.492Z,18.60
2023-04-14T14:38:33.219Z,18.20
2023-04-14T14:40:59.773Z,18.10
2023-04-14T14:43:26.356Z,18.20
2023-04-14T14:45:52.928Z,18.10
2023-04-14T14:48:20.747Z,18.40
2023-04-14T14:50:47.407Z,18.50
2023-04-14T14:53:13.913Z,18.20
2023-04-14T14:55:40.628Z,18.10
2023-04-14T14:58:08.388Z,18.00
2023-04-14T15:00:35.382Z,17.70
2023-04-14T15:03:02.308Z,17.60
2023-04-14T15:07:56.044Z,16.90
2023-04-14T15:12:49.625Z,16.50
2023-04-14T15:15:18.995Z,16.10
2023-04-14T15:17:48.571Z,15.90
2023-04-14T15:20:15.974Z,15.90
2023-04-14T15:22:42.528Z,15.50
2023-04-14T15:39:54.059Z,15.10
2023-04-14T15:42:20.732Z,14.60
2023-04-14T15:44:48.635Z,14.60
2023-04-14T15:47:15.361Z,14.60
2023-04-14T15:49:41.974Z,14.60
2023-04-14T15:59:32.734Z,14.70
2023-04-14T16:02:01.567Z,13.70
2023-04-14T16:04:28.700Z,14.60
2023-04-14T16:06:55.548Z,14.60
2023-04-14T16:09:22.283Z,14.50
2023-04-14T16:11:49.123Z,14.50
2023-04-14T16:14:15.906Z,14.50
2023-04-14T16:16:46.892Z,14.50
2023-04-14T16:19:15.284Z,14.50
2023-04-14T16:21:42.613Z,14.40
2023-04-14T16:24:09.989Z,14.40
2023-04-14T16:26:37.601Z,14.50
2023-04-14T16:31:31.697Z,14.30
2023-04-14T16:33:58.310Z,14.10
2023-04-14T16:38:52.914Z,14.00
2023-04-14T16:41:21.497Z,13.90
2023-04-14T16:43:48.235Z,13.70
2023-04-14T16:46:14.942Z,13.70
2023-04-14T16:48:41.547Z,14.40
2023-04-14T16:51:09.082Z,13.60
2023-04-14T16:53:36.455Z,13.50
2023-04-14T16:56:06.268Z,14.00
2023-04-14T16:58:32.991Z,13.20
2023-04-14T17:01:00.546Z,13.20
2023-04-14T17:03:27.263Z,13.20
2023-04-14T17:05:54.644Z,13.20
2023-04-14T17:08:21.263Z,13.10
2023-04-14T17:10:47.936Z,13.10
2023-04-14T17:13:14.576Z,13.10
2023-04-14T17:15:42.465Z,13.00
2023-04-14T17:23:03.946Z,13.00
2023-04-14T17:42:42.498Z,12.60
2023-04-14T17:50:05.300Z,12.40
2023-04-14T17:52:32.822Z,12.30
2023-04-14T17:54:59.922Z,12.20
2023-04-14T17:57:26.476Z,12.20
2023-04-14T18:07:15.364Z,11.80
2023-04-14T18:09:41.889Z,11.70
2023-04-14T18:12:08.529Z,11.70
2023-04-14T18:14:35.782Z,11.60
2023-04-14T18:17:02.642Z,11.50
2023-04-14T18:19:29.324Z,11.50
2023-04-14T18:21:56.815Z,11.50
2023-04-14T18:29:21.096Z,11.20
2023-04-14T18:31:48.172Z,11.30
2023-04-14T18:39:10.906Z,11.40
2023-04-14T18:41:37.684Z,11.70
2023-04-14T18:44:04.344Z,11.60
2023-04-14T18:46:30.992Z,13.30
2023-04-14T18:48:57.670Z,12.20
2023-04-14T18:51:24.311Z,12.50
2023-04-14T18:53:50.941Z,12.50
2023-04-14T18:56:18.540Z,12.50
2023-04-14T18:58:46.214Z,12.70
2023-04-14T19:01:12.863Z,12.80
2023-04-14T19:03:39.494Z,12.90
2023-04-14T19:06:06.161Z,12.50
2023-04-14T19:08:32.947Z,12.10
2023-04-14T19:28:16.576Z,11.20
2023-04-14T19:35:39.062Z,11.00
2023-04-14T20:00:13.939Z,10.60
2023-04-14T22:52:39.322Z,8.60
